createdAt,value
2022-12-15T07:01:35.704Z,20.70
2022-12-15T07:04:05.897Z,20.30
2022-12-15T07:06:36.869Z,24.30
2022-12-15T07:09:08.103Z,25.60
2022-12-15T07:11:35.948Z,18.80
2022-12-15T07:14:03.760Z,16.50
2022-12-15T07:16:31.656Z,20.70
2022-12-15T07:18:59.584Z,24.00
2022-12-15T07:21:27.447Z,19.50
2022-12-15T07:23:56.685Z,23.00
2022-12-15T07:26:25.718Z,23.80
2022-12-15T07:28:54.495Z,21.70
2022-12-15T07:31:23.168Z,24.40
2022-12-15T07:33:52.692Z,19.80
2022-12-15T07:36:21.096Z,22.00
2022-12-15T07:38:50.314Z,20.50
2022-12-15T07:41:20.978Z,28.70
2022-12-15T07:43:49.041Z,28.40
2022-12-15T07:46:18.066Z,20.10
2022-12-15T07:48:50.457Z,23.10
2022-12-15T07:51:20.882Z,26.60
2022-12-15T07:53:51.118Z,27.90
2022-12-15T07:56:20.119Z,25.40
2022-12-15T07:58:49.005Z,22.80
2022-12-15T08:01:17.249Z,23.40
2022-12-15T08:03:45.535Z,21.30
2022-12-15T08:06:15.144Z,24.00
2022-12-15T08:08:45.060Z,24.80
2022-12-15T08:11:21.504Z,24.70
2022-12-15T08:14:02.423Z,27.10
2022-12-15T08:16:34.543Z,26.00
2022-12-15T08:19:05.498Z,25.60
2022-12-15T08:21:34.140Z,18.60
2022-12-15T08:24:02.372Z,30.90
2022-12-15T08:26:31.113Z,29.00
2022-12-15T08:29:31.710Z,28.30
2022-12-15T08:31:52.394Z,28.40
2022-12-15T08:34:20.825Z,26.60
2022-12-15T08:36:48.817Z,26.20
2022-12-15T08:39:16.887Z,26.50
2022-12-15T08:41:45.275Z,22.10
2022-12-15T08:44:13.339Z,28.10
2022-12-15T08:46:41.117Z,23.10
2022-12-15T08:49:10.412Z,31.60
2022-12-15T08:51:38.365Z,20.90
2022-12-15T08:54:06.234Z,27.20
2022-12-15T08:56:35.918Z,25.30
2022-12-15T08:59:03.916Z,19.40
2022-12-15T09:01:32.820Z,31.00
2022-12-15T09:04:04.315Z,26.00
2022-12-15T09:06:35.433Z,24.30
2022-12-15T09:09:07.836Z,25.60
2022-12-15T09:11:35.819Z,27.80
2022-12-15T09:14:04.519Z,25.50
2022-12-15T09:16:32.421Z,24.50
2022-12-15T09:19:00.993Z,17.80
2022-12-15T09:21:30.624Z,21.00
2022-12-15T09:24:02.120Z,21.90
2022-12-15T09:26:33.017Z,18.40
2022-12-15T09:29:02.200Z,18.30
2022-12-15T09:31:33.059Z,15.90
2022-12-15T09:34:01.386Z,15.90
2022-12-15T09:36:30.597Z,16.60
2022-12-15T09:38:59.395Z,18.20
2022-12-15T09:41:38.991Z,23.90
2022-12-15T09:44:21.297Z,28.70
2022-12-15T09:46:52.130Z,18.00
2022-12-15T09:49:25.332Z,24.10
2022-12-15T09:52:10.392Z,23.30
2022-12-15T09:54:42.082Z,27.80
2022-12-15T09:57:36.175Z,21.20
2022-12-15T10:00:15.608Z,21.70
2022-12-15T10:03:05.154Z,19.90
2022-12-15T10:06:07.240Z,24.50
2022-12-15T10:08:36.695Z,21.00
2022-12-15T10:11:14.823Z,17.10
2022-12-15T10:16:22.588Z,18.90
2022-12-15T10:19:04.526Z,26.90
2022-12-15T10:21:32.983Z,23.20
2022-12-15T10:24:59.768Z,21.60
2022-12-15T10:27:17.381Z,23.00
2022-12-15T10:29:52.548Z,23.30
2022-12-15T10:32:31.124Z,20.70
2022-12-15T10:34:59.549Z,23.80
2022-12-15T10:37:27.575Z,26.40
2022-12-15T10:39:55.751Z,24.80
2022-12-15T10:42:27.268Z,24.20
2022-12-15T10:44:57.831Z,17.20
2022-12-15T10:47:28.464Z,24.20
2022-12-15T10:50:25.506Z,18.00
2022-12-15T10:52:53.681Z,17.40
2022-12-15T10:55:38.421Z,22.30
2022-12-15T10:58:21.652Z,21.10
2022-12-15T11:01:06.663Z,13.70
2022-12-15T11:03:39.654Z,22.10
2022-12-15T11:06:33.496Z,22.60
2022-12-15T11:09:27.416Z,20.50
2022-12-15T11:12:13.873Z,23.60
2022-12-15T11:14:51.095Z,18.50
2022-12-15T11:17:23.850Z,23.60
2022-12-15T11:20:03.724Z,18.10
2022-12-15T11:22:42.763Z,25.90
2022-12-15T11:25:36.900Z,23.40
2022-12-15T11:28:17.017Z,19.20
2022-12-15T11:30:54.548Z,20.90
2022-12-15T11:33:22.403Z,16.70
2022-12-15T11:36:07.927Z,26.80
2022-12-15T11:38:43.786Z,23.20
2022-12-15T11:41:21.200Z,25.10
2022-12-15T11:44:18.990Z,23.80
2022-12-15T11:47:09.906Z,22.90
2022-12-15T11:49:49.362Z,19.00
2022-12-15T11:52:30.355Z,23.30
2022-12-15T11:55:25.891Z,24.00
2022-12-15T11:58:19.900Z,15.30
2022-12-15T12:01:04.867Z,13.80
2022-12-15T12:03:54.031Z,15.80
2022-12-15T12:06:34.845Z,14.00
2022-12-15T12:09:11.409Z,15.40
2022-12-15T12:11:50.766Z,14.30
2022-12-15T12:14:38.097Z,16.60
2022-12-15T12:17:14.461Z,14.40
2022-12-15T12:20:11.517Z,17.40
2022-12-15T12:23:05.678Z,23.60
2022-12-15T12:25:40.736Z,21.20
2022-12-15T12:28:22.053Z,18.40
2022-12-15T12:30:50.615Z,17.50
2022-12-15T12:33:21.657Z,11.30
2022-12-15T12:35:52.068Z,11.60
2022-12-15T12:38:41.555Z,18.40
2022-12-15T12:41:19.160Z,16.50
2022-12-15T12:43:56.479Z,14.40
2022-12-15T12:46:33.403Z,15.20
2022-12-15T12:49:33.334Z,20.10
2022-12-15T12:52:04.273Z,17.40
2022-12-15T12:54:38.178Z,18.70
2022-12-15T12:57:12.234Z,15.10
2022-12-15T12:59:58.384Z,15.90
2022-12-15T13:02:26.791Z,20.50
2022-12-15T13:04:57.745Z,18.40
2022-12-15T13:07:28.634Z,14.00
2022-12-15T13:10:16.655Z,14.40
2022-12-15T13:12:52.566Z,14.40
2022-12-15T13:15:42.544Z,14.40
2022-12-15T13:18:22.676Z,16.90
2022-12-15T13:20:54.738Z,20.40
2022-12-15T13:23:22.810Z,20.10
2022-12-15T13:25:55.957Z,22.10
2022-12-15T13:28:42.799Z,19.00
2022-12-15T13:31:16.879Z,14.50
2022-12-15T13:33:51.170Z,16.40
2022-12-15T13:36:37.911Z,15.40
2022-12-15T13:39:14.586Z,16.20
2022-12-15T13:44:51.861Z,15.60
2022-12-15T13:47:25.761Z,16.40
2022-12-15T13:50:08.645Z,10.20
2022-12-15T13:55:38.480Z,13.90
2022-12-15T13:58:17.503Z,12.50
2022-12-15T14:00:57.242Z,10.00
2022-12-15T14:03:26.020Z,15.80
2022-12-15T14:05:57.374Z,17.10
2022-12-15T14:08:30.283Z,15.60
2022-12-15T14:11:06.924Z,15.20
2022-12-15T14:13:46.916Z,17.50
2022-12-15T14:16:22.264Z,17.20
2022-12-15T14:19:10.663Z,16.20
2022-12-15T14:21:38.477Z,18.90
2022-12-15T14:24:41.131Z,21.20
2022-12-15T14:27:09.304Z,16.40
2022-12-15T14:29:37.245Z,16.60
2022-12-15T14:32:06.084Z,13.90
2022-12-15T14:34:41.832Z,14.30
2022-12-15T14:37:18.046Z,14.60
2022-12-15T14:39:50.146Z,17.40
2022-12-15T14:42:25.060Z,20.70
2022-12-15T14:44:57.822Z,22.60
2022-12-15T14:47:34.493Z,18.30
2022-12-15T14:50:09.831Z,15.50
2022-12-15T14:52:41.488Z,15.10
2022-12-15T14:55:34.265Z,20.00
2022-12-15T14:58:21.765Z,14.60
2022-12-15T15:00:52.189Z,16.10
2022-12-15T15:03:38.522Z,15.70
2022-12-15T15:06:12.750Z,11.10
2022-12-15T15:08:47.860Z,18.20
2022-12-15T15:11:25.170Z,16.40
2022-12-15T15:13:59.095Z,19.20
2022-12-15T15:16:27.519Z,13.80
2022-12-15T15:18:56.805Z,18.60
2022-12-15T15:21:29.094Z,25.30
2022-12-15T15:24:20.526Z,25.30
2022-12-15T15:26:48.857Z,21.80
2022-12-15T15:29:41.269Z,24.40
2022-12-15T15:32:18.197Z,16.90
2022-12-15T15:34:47.360Z,21.90
2022-12-15T15:37:24.014Z,18.80
2022-12-15T15:39:54.405Z,23.00
2022-12-15T15:42:25.436Z,20.40
2022-12-15T15:44:57.879Z,15.90
2022-12-15T15:47:26.572Z,25.20
2022-12-15T15:50:00.055Z,20.60
2022-12-15T15:52:29.959Z,19.50
2022-12-15T15:54:58.847Z,22.80
2022-12-15T15:57:26.716Z,26.80
2022-12-15T15:59:55.508Z,21.60
2022-12-15T16:02:23.508Z,21.20
2022-12-15T16:04:51.646Z,21.00
2022-12-15T16:07:19.408Z,26.80
2022-12-15T16:09:47.483Z,26.80
2022-12-15T16:12:28.460Z,23.40
2022-12-15T16:14:56.734Z,28.30
2022-12-15T16:17:26.024Z,27.70
2022-12-15T16:19:53.911Z,30.90
2022-12-15T16:22:22.780Z,21.50
2022-12-15T16:24:50.783Z,27.30
2022-12-15T16:27:18.566Z,26.00
2022-12-15T16:29:46.384Z,26.50
2022-12-15T16:32:14.239Z,22.70
2022-12-15T16:34:42.106Z,22.20
2022-12-15T16:37:34.804Z,25.60
2022-12-15T16:40:14.912Z,21.60
2022-12-15T16:42:42.938Z,27.70
2022-12-15T16:45:21.445Z,18.70
2022-12-15T16:47:49.694Z,26.10
2022-12-15T16:50:27.110Z,18.70
2022-12-15T16:52:55.521Z,26.10
2022-12-15T16:55:26.613Z,27.00
2022-12-15T16:58:03.451Z,27.00
2022-12-15T17:00:34.837Z,20.40
2022-12-15T17:03:03.069Z,19.10
2022-12-15T17:05:36.040Z,29.20
2022-12-15T17:08:06.895Z,25.50
2022-12-15T17:10:34.760Z,28.70
2022-12-15T17:13:28.720Z,29.90
2022-12-15T17:16:02.877Z,31.10
2022-12-15T17:18:31.088Z,32.40
2022-12-15T17:21:10.155Z,23.60
2022-12-15T17:23:38.015Z,27.90
2022-12-15T17:26:25.669Z,34.10
2022-12-15T17:28:57.123Z,32.10
2022-12-15T17:31:30.278Z,33.40
2022-12-15T17:34:26.001Z,33.70
2022-12-15T17:36:54.556Z,33.30
2022-12-15T17:39:23.298Z,37.40
2022-12-15T17:42:00.031Z,38.90
2022-12-15T17:44:34.153Z,37.70
2022-12-15T17:47:06.043Z,40.10
2022-12-15T17:49:38.326Z,40.00
2022-12-15T17:52:17.107Z,37.80
2022-12-15T17:54:45.075Z,39.60
2022-12-15T17:57:13.145Z,33.70
2022-12-15T17:59:41.254Z,36.00
2022-12-15T18:02:13.916Z,37.10
2022-12-15T18:04:42.660Z,39.90
2022-12-15T18:07:22.531Z,35.80
2022-12-15T18:09:51.827Z,36.40
2022-12-15T18:12:25.652Z,34.60
2022-12-15T18:14:55.006Z,35.30
2022-12-15T18:17:23.139Z,42.50
2022-12-15T18:19:51.156Z,41.50
2022-12-15T18:22:23.070Z,39.00
2022-12-15T18:24:53.341Z,40.50
2022-12-15T18:27:24.154Z,39.50
2022-12-15T18:29:52.075Z,43.30
2022-12-15T18:32:22.383Z,45.40
2022-12-15T18:34:50.792Z,44.40
2022-12-15T18:37:21.545Z,46.70
2022-12-15T18:39:50.733Z,43.80
2022-12-15T18:42:21.133Z,38.80
2022-12-15T18:44:51.726Z,42.70
2022-12-15T18:47:22.340Z,40.90
2022-12-15T18:49:50.651Z,48.60
2022-12-15T18:52:21.117Z,42.90
2022-12-15T18:54:50.782Z,43.80
2022-12-15T18:57:39.452Z,46.80
2022-12-15T19:00:10.406Z,48.30
2022-12-15T19:02:38.303Z,47.80
2022-12-15T19:05:07.198Z,48.20
2022-12-15T19:07:35.946Z,43.80
2022-12-15T19:10:04.002Z,44.80
2022-12-15T19:12:31.787Z,44.50
2022-12-15T19:14:59.569Z,46.80
2022-12-15T19:17:45.913Z,49.60
2022-12-15T19:20:38.563Z,47.40
2022-12-15T19:23:07.250Z,43.70
2022-12-15T19:25:36.045Z,48.90
2022-12-15T19:28:06.713Z,47.30
2022-12-15T19:30:40.326Z,48.50
2022-12-15T19:33:14.680Z,45.80
2022-12-15T19:35:45.430Z,42.70
2022-12-15T19:38:24.590Z,43.40
2022-12-15T19:40:53.881Z,43.80
2022-12-15T19:43:23.862Z,41.50
2022-12-15T19:45:52.595Z,43.70
2022-12-15T19:48:23.835Z,43.80
2022-12-15T19:50:54.878Z,43.70
2022-12-15T19:53:30.126Z,42.40
2022-12-15T19:56:01.377Z,42.00
2022-12-15T19:58:32.310Z,37.90
2022-12-15T20:01:04.373Z,38.60
2022-12-15T20:03:33.518Z,38.20
2022-12-15T20:06:03.138Z,41.00
2022-12-15T20:08:37.634Z,37.70
2022-12-15T20:11:05.737Z,42.90
2022-12-15T20:13:33.827Z,40.20
2022-12-15T20:16:01.940Z,41.70
2022-12-15T20:18:30.067Z,43.30
2022-12-15T20:20:59.353Z,38.00
2022-12-15T20:23:29.599Z,38.50
2022-12-15T20:25:58.058Z,37.40
2022-12-15T20:28:29.149Z,41.30
2022-12-15T20:30:58.262Z,38.90
2022-12-15T20:33:26.174Z,39.90
2022-12-15T20:35:54.341Z,37.70
2022-12-15T20:38:32.743Z,38.10
2022-12-15T20:41:02.078Z,41.50
2022-12-15T20:43:35.216Z,48.80
2022-12-15T20:46:12.849Z,44.30
2022-12-15T20:48:41.069Z,42.80
2022-12-15T20:51:16.302Z,38.60
2022-12-15T20:53:44.269Z,36.10
2022-12-15T20:56:12.139Z,42.00
2022-12-15T20:58:40.218Z,42.70
2022-12-15T21:01:17.796Z,43.30
2022-12-15T21:03:46.843Z,42.80
2022-12-15T21:06:14.850Z,44.00
2022-12-15T21:08:43.353Z,45.60
2022-12-15T21:11:25.799Z,43.80
2022-12-15T21:13:56.729Z,42.90
2022-12-15T21:16:28.012Z,40.30
2022-12-15T21:19:20.500Z,46.90
2022-12-15T21:21:47.246Z,43.50
2022-12-15T21:24:26.039Z,44.90
2022-12-15T21:26:54.956Z,53.20
2022-12-15T21:29:25.954Z,48.50
2022-12-15T21:31:53.844Z,52.20
2022-12-15T21:34:21.821Z,51.70
2022-12-15T21:36:54.722Z,54.20
2022-12-15T21:39:31.355Z,59.40
2022-12-15T21:42:01.384Z,59.50
2022-12-15T21:44:29.687Z,58.70
2022-12-15T21:46:58.442Z,59.50
2022-12-15T21:49:26.422Z,58.10
2022-12-15T21:51:57.761Z,59.70
2022-12-15T21:54:31.367Z,56.10
2022-12-15T21:57:00.665Z,55.20
2022-12-15T21:59:31.396Z,64.60
